Putnam Valley, NY (10579)

9:27 AM EST on November 24, 2014 (GMT -0500)
Jefferson Valley Route 6N | Change Station
CLOSE
Current Station
Personal Weather Station
Location: Jefferson Valley-Yorktown, NY
Elevation: 564 ft
Nearby Weather Stations
Active Advisory: Winter Storm Watch

Elev 564 ft 41.34 °N, 73.79 °W | Updated 20 seconds ago

Overcast
Overcast
62.1 °F
Feels Like 62.1 °F
N
4.5
Wind Variable Wind from South
Gusts 4.9 mph

Today
High -- | Low -- °F
--% Chance of Precip.
Yesterday
High -- | Low -- °F
Precip. -- in
6:54 AM 4:29 PM
Waxing Crescent, 5% visible
Pressure 29.66 in
Visibility 10.0 miles
Clouds Scattered Clouds 1500 ft
Mostly Cloudy 2000 ft
Dew Point 59 °F
Humidity 89%
Rainfall 0.78 in
Snow Depth Not available.
UV 1.0 out of 12
Pollen .10 out of 12
Air Quality Not available.
Flu Activity Not available.
METAR KSWF 241345Z 18015G21KT 10SM SCT015 BKN020 17/16 A2966

More Conditions Fewer Conditions

Pressure 29.66 in
Visibility 10.0 miles
Clouds Scattered Clouds 1500 ft
Mostly Cloudy 2000 ft
Dew Point 59 °F
Humidity 89%
Rainfall 0.78 in
Snow Depth Not available.
UV 1.0 out of 12
Pollen .10 out of 12
Air Quality Not available.
Flu Activity Not available.
METAR KSWF 241345Z 18015G21KT 10SM SCT015 BKN020 17/16 A2966

More Conditions Fewer Conditions

10-Day Weather Forecast

Almanac

Astronomy

Nov. 24, 2014 Rise Set
Actual Time
Civil Twilight
Nautical Twilight
Astronomical Twilight
Moon
Length of Visible Light
Length of Day
Tomorrow will be .
, % of the Moon is Illuminated

Today's Extremes

State Highs State Lows

Community

WunderPhotos

Upload Photos

1,773,343 photos uploaded!

WunderBlogs® & News

Nearby

Air Quality

  Air Quality AQ Index Pollutant
Not available.

Snow Depth

Station Depth Elevation

Earthquake Activity

City Distance Mag. Time & Date
Minimum magnitude displayed is 2.5.

Coastal Water Temperatures

Place Temperature

Nearby Weather Stations